createdAt,value
2019-05-20T00:00:26.658Z,9.05
2019-05-20T00:04:30.058Z,7.30
2019-05-20T00:08:33.637Z,6.60
2019-05-20T00:12:37.427Z,11.53
2019-05-20T00:16:41.368Z,6.28
2019-05-20T00:20:45.268Z,15.70
2019-05-20T00:24:48.715Z,10.78
2019-05-20T00:28:52.137Z,12.85
2019-05-20T00:32:55.576Z,11.22
2019-05-20T00:36:59.097Z,13.83
2019-05-20T00:41:02.566Z,12.55
2019-05-20T00:45:08.475Z,13.18
2019-05-20T00:49:11.980Z,12.80
2019-05-20T00:53:15.435Z,12.35
2019-05-20T00:57:18.914Z,13.08
2019-05-20T01:01:22.337Z,11.90
2019-05-20T01:05:25.954Z,14.45
2019-05-20T01:09:29.764Z,14.38
2019-05-20T01:13:33.206Z,11.05
2019-05-20T01:17:36.970Z,12.55
2019-05-20T01:21:41.373Z,12.43
2019-05-20T01:25:44.892Z,12.40
2019-05-20T01:29:49.052Z,12.15
2019-05-20T01:33:52.789Z,12.78
2019-05-20T01:37:56.623Z,12.90
2019-05-20T01:42:00.118Z,12.80
2019-05-20T01:46:03.574Z,17.60
2019-05-20T01:50:07.580Z,12.43
2019-05-20T01:54:11.000Z,14.65
2019-05-20T01:58:14.445Z,18.90
2019-05-20T02:02:18.146Z,14.93
2019-05-20T02:06:21.606Z,16.57
2019-05-20T02:10:25.372Z,17.05
2019-05-20T02:14:33.585Z,16.10
2019-05-20T02:18:37.324Z,18.50
2019-05-20T02:22:41.121Z,19.00
2019-05-20T02:26:44.566Z,15.85
2019-05-20T02:30:47.977Z,16.97
2019-05-20T02:34:51.559Z,21.80
2019-05-20T02:38:55.043Z,16.73
2019-05-20T02:42:58.462Z,21.10
2019-05-20T02:47:01.914Z,17.52
2019-05-20T02:51:05.693Z,23.90
2019-05-20T02:55:09.509Z,22.93
2019-05-20T02:59:12.957Z,20.05
2019-05-20T03:03:16.420Z,19.73
2019-05-20T03:07:19.862Z,17.87
2019-05-20T03:11:23.305Z,23.60
2019-05-20T03:15:26.715Z,23.92
2019-05-20T03:19:30.138Z,21.35
2019-05-20T03:23:33.600Z,20.02
2019-05-20T03:27:37.122Z,22.15
2019-05-20T03:31:40.605Z,18.07
2019-05-20T03:35:44.266Z,18.95
2019-05-20T03:39:47.687Z,18.82
2019-05-20T03:43:51.504Z,21.85
2019-05-20T03:47:55.435Z,20.52
2019-05-20T03:51:58.942Z,19.42
2019-05-20T03:56:02.368Z,15.78
2019-05-20T04:00:07.249Z,17.55
2019-05-20T04:04:10.691Z,16.45
2019-05-20T04:08:14.229Z,20.55
2019-05-20T04:12:17.753Z,18.45
2019-05-20T04:16:21.178Z,20.88
2019-05-20T04:20:24.614Z,17.50
2019-05-20T04:24:28.434Z,17.77
2019-05-20T04:28:31.870Z,15.67
2019-05-20T04:32:35.786Z,18.42
2019-05-20T04:36:39.605Z,14.30
2019-05-20T04:40:43.309Z,17.20
2019-05-20T04:44:47.208Z,17.57
2019-05-20T04:48:50.690Z,17.45
2019-05-20T04:52:54.126Z,17.57
2019-05-20T04:56:57.555Z,18.65
2019-05-20T05:01:01.014Z,18.27
2019-05-20T05:05:06.418Z,16.82
2019-05-20T05:09:10.326Z,17.30
2019-05-20T05:13:13.842Z,18.30
2019-05-20T05:17:17.264Z,19.52
2019-05-20T05:21:20.771Z,12.70
2019-05-20T05:25:24.382Z,13.48
2019-05-20T05:29:27.852Z,17.70
2019-05-20T05:33:31.600Z,17.32
2019-05-20T05:37:35.157Z,15.50
2019-05-20T05:41:38.596Z,16.87
2019-05-20T05:45:42.399Z,20.37
2019-05-20T05:49:45.844Z,18.05
2019-05-20T05:53:49.301Z,19.30
2019-05-20T05:57:53.529Z,14.85
2019-05-20T06:01:56.966Z,13.65
2019-05-20T06:06:11.380Z,12.98
2019-05-20T06:10:09.548Z,18.92
2019-05-20T06:14:13.243Z,18.15
2019-05-20T06:18:16.700Z,17.27
2019-05-20T06:22:20.169Z,18.48
2019-05-20T06:26:23.927Z,14.15
2019-05-20T06:30:39.452Z,16.15
2019-05-20T06:34:43.255Z,16.57
2019-05-20T06:38:50.254Z,16.25
2019-05-20T06:42:53.766Z,12.80
2019-05-20T06:46:57.211Z,14.15
2019-05-20T06:51:00.823Z,13.38
2019-05-20T06:55:07.326Z,15.65
2019-05-20T06:59:11.171Z,12.35
2019-05-20T07:03:14.647Z,13.28
2019-05-20T07:07:21.238Z,15.32
2019-05-20T07:11:23.401Z,9.75
2019-05-20T07:15:27.834Z,9.43
2019-05-20T07:19:31.802Z,11.93
2019-05-20T07:23:38.383Z,13.95
2019-05-20T07:27:42.131Z,13.68
2019-05-20T07:31:47.365Z,13.50
2019-05-20T07:35:51.131Z,14.10
2019-05-20T07:39:54.592Z,14.93
2019-05-20T07:43:58.069Z,16.17
2019-05-20T07:48:02.624Z,12.65
2019-05-20T07:52:06.225Z,14.43
2019-05-20T07:56:19.706Z,13.68
2019-05-20T08:00:24.461Z,12.25
2019-05-20T08:04:28.592Z,13.03
2019-05-20T08:08:33.839Z,11.65
2019-05-20T08:12:37.447Z,13.28
2019-05-20T08:16:40.880Z,13.80
2019-05-20T08:20:44.581Z,14.00
2019-05-20T08:24:48.050Z,11.57
2019-05-20T08:28:51.511Z,12.05
2019-05-20T08:32:54.944Z,10.13
2019-05-20T08:36:58.401Z,10.23
2019-05-20T08:41:02.155Z,13.45
2019-05-20T08:45:07.188Z,10.35
2019-05-20T08:49:11.838Z,10.65
2019-05-20T08:53:15.899Z,11.33
2019-05-20T08:57:19.354Z,9.55
2019-05-20T09:01:24.594Z,11.20
2019-05-20T09:05:28.896Z,9.33
2019-05-20T09:09:33.806Z,8.35
2019-05-20T09:13:37.869Z,9.08
2019-05-20T09:17:41.910Z,19.17
2019-05-20T09:21:46.927Z,8.30
2019-05-20T09:25:51.106Z,6.60
2019-05-20T09:29:55.055Z,5.10
2019-05-20T09:33:58.987Z,7.03
2019-05-20T09:38:17.236Z,6.95
2019-05-20T09:42:07.999Z,10.82
2019-05-20T09:46:11.450Z,5.62
2019-05-20T09:50:15.344Z,6.92
2019-05-20T09:54:19.223Z,4.95
2019-05-20T09:58:22.652Z,6.95
2019-05-20T10:02:35.535Z,8.83
2019-05-20T10:06:31.276Z,4.92
2019-05-20T10:10:35.309Z,4.95
2019-05-20T10:14:38.743Z,5.58
2019-05-20T10:18:42.476Z,5.97
2019-05-20T10:22:46.153Z,4.22
2019-05-20T10:26:50.938Z,5.10
2019-05-20T10:30:54.782Z,5.05
2019-05-20T10:34:58.376Z,5.35
2019-05-20T10:39:02.104Z,5.17
2019-05-20T10:43:05.617Z,3.95
2019-05-20T10:47:09.047Z,3.85
2019-05-20T10:51:12.726Z,3.47
2019-05-20T10:55:16.703Z,4.75
2019-05-20T10:59:20.151Z,4.87
2019-05-20T11:03:23.818Z,6.30
2019-05-20T11:07:27.262Z,4.27
2019-05-20T11:11:30.946Z,5.05
2019-05-20T11:15:36.008Z,4.42
2019-05-20T11:19:39.430Z,5.07
2019-05-20T11:23:43.061Z,5.35
2019-05-20T11:27:46.754Z,6.05
2019-05-20T11:31:50.477Z,5.55
2019-05-20T11:35:54.247Z,4.33
2019-05-20T11:39:57.669Z,4.75
2019-05-20T11:44:01.728Z,5.97
2019-05-20T11:48:05.431Z,5.12
2019-05-20T11:52:10.026Z,5.25
2019-05-20T11:56:13.540Z,5.17
2019-05-20T12:00:17.406Z,5.78
2019-05-20T12:04:21.619Z,3.95
2019-05-20T12:08:25.329Z,5.22
2019-05-20T12:12:29.977Z,4.92
2019-05-20T12:16:33.410Z,6.20
2019-05-20T12:20:37.183Z,4.72
2019-05-20T12:24:40.601Z,4.00
2019-05-20T12:28:44.023Z,5.00
2019-05-20T12:32:47.458Z,5.67
2019-05-20T12:36:50.877Z,6.72
2019-05-20T12:40:54.732Z,5.03
2019-05-20T12:44:58.155Z,5.45
2019-05-20T12:49:01.767Z,4.70
2019-05-20T12:53:07.881Z,6.08
2019-05-20T12:57:13.490Z,4.58
2019-05-20T13:01:16.963Z,4.45
2019-05-20T13:05:20.704Z,4.83
2019-05-20T13:09:24.413Z,5.90
2019-05-20T13:13:27.847Z,6.00
2019-05-20T13:17:32.237Z,5.45
2019-05-20T13:21:35.785Z,7.78
2019-05-20T13:25:39.192Z,5.35
2019-05-20T13:29:42.624Z,8.90
2019-05-20T13:33:46.049Z,6.22
2019-05-20T13:37:49.735Z,4.10
2019-05-20T13:41:53.163Z,6.35
2019-05-20T13:45:56.848Z,6.70
2019-05-20T13:50:00.285Z,3.80
2019-05-20T13:54:03.699Z,4.05
2019-05-20T13:58:07.118Z,4.85
2019-05-20T14:02:10.839Z,5.22
2019-05-20T14:06:14.265Z,7.00
2019-05-20T14:10:17.813Z,8.73
2019-05-20T14:14:21.570Z,6.35
2019-05-20T14:18:24.998Z,4.58
2019-05-20T14:22:28.681Z,7.62
2019-05-20T14:26:32.105Z,4.83
2019-05-20T14:30:36.316Z,4.40
2019-05-20T14:34:39.755Z,3.10
2019-05-20T14:38:43.227Z,4.42
2019-05-20T14:42:46.843Z,4.75
2019-05-20T14:46:50.672Z,11.20
2019-05-20T14:50:54.478Z,5.05
2019-05-20T14:54:57.972Z,5.53
2019-05-20T14:59:01.898Z,5.72
2019-05-20T15:03:06.466Z,6.70
2019-05-20T15:07:09.854Z,5.70
2019-05-20T15:11:13.301Z,5.87
2019-05-20T15:15:18.304Z,6.12
2019-05-20T15:19:21.745Z,4.15
2019-05-20T15:23:25.286Z,6.35
2019-05-20T15:27:28.741Z,12.88
2019-05-20T15:31:32.180Z,5.42
2019-05-20T15:35:36.172Z,6.22
2019-05-20T15:39:39.887Z,5.65
2019-05-20T15:43:43.392Z,3.85
2019-05-20T15:47:47.785Z,5.17
2019-05-20T15:51:51.913Z,6.10
2019-05-20T15:55:57.821Z,6.40
2019-05-20T16:00:01.707Z,5.85
2019-05-20T16:04:05.221Z,6.17
2019-05-20T16:08:08.936Z,5.50
2019-05-20T16:12:12.390Z,14.55
2019-05-20T16:16:16.668Z,5.25
2019-05-20T16:20:20.432Z,4.90
2019-05-20T16:24:23.854Z,6.22
2019-05-20T16:28:27.600Z,4.33
2019-05-20T16:32:31.052Z,5.78
2019-05-20T16:36:34.461Z,5.55
2019-05-20T16:40:38.329Z,5.25
2019-05-20T16:44:42.037Z,5.37
2019-05-20T16:48:45.480Z,6.03
2019-05-20T16:52:49.503Z,7.15
2019-05-20T16:56:53.030Z,7.03
2019-05-20T17:00:56.531Z,7.80
2019-05-20T17:04:59.953Z,6.58
2019-05-20T17:09:05.157Z,7.50
2019-05-20T17:13:08.800Z,6.97
2019-05-20T17:17:13.475Z,6.60
2019-05-20T17:21:17.218Z,7.33
2019-05-20T17:25:21.107Z,6.75
2019-05-20T17:29:24.795Z,6.15
2019-05-20T17:33:28.883Z,5.78
2019-05-20T17:37:32.348Z,8.65
2019-05-20T17:41:36.221Z,7.55
2019-05-20T17:45:39.792Z,7.85
2019-05-20T17:49:43.223Z,6.62
2019-05-20T17:53:46.681Z,9.08
2019-05-20T17:57:51.589Z,5.30
2019-05-20T18:01:55.024Z,8.53
2019-05-20T18:05:58.523Z,8.60
2019-05-20T18:10:02.449Z,6.47
2019-05-20T18:14:06.051Z,10.00
2019-05-20T18:18:10.530Z,8.88
2019-05-20T18:22:14.099Z,8.00
2019-05-20T18:26:17.609Z,7.95
2019-05-20T18:30:21.502Z,8.55
2019-05-20T18:34:25.045Z,8.85
2019-05-20T18:38:28.611Z,8.15
2019-05-20T18:42:32.078Z,9.35
2019-05-20T18:46:36.122Z,12.56
2019-05-20T18:50:39.846Z,8.27
2019-05-20T18:54:43.669Z,8.15
2019-05-20T18:58:47.114Z,7.95
2019-05-20T19:02:50.575Z,8.07
2019-05-20T19:06:55.240Z,8.37
2019-05-20T19:10:58.639Z,8.50
2019-05-20T19:15:03.465Z,7.75
2019-05-20T19:19:06.892Z,6.45
2019-05-20T19:23:10.330Z,8.60
2019-05-20T19:27:13.782Z,7.25
2019-05-20T19:31:17.910Z,9.10
2019-05-20T19:35:21.406Z,8.60
2019-05-20T19:39:25.129Z,7.55
2019-05-20T19:43:28.558Z,7.37
2019-05-20T19:47:32.344Z,9.35
2019-05-20T19:51:36.040Z,8.45
2019-05-20T19:55:39.750Z,9.35
2019-05-20T19:59:43.255Z,5.55
2019-05-20T20:03:46.771Z,6.55
2019-05-20T20:07:50.280Z,7.28
2019-05-20T20:11:54.003Z,10.00
2019-05-20T20:15:57.348Z,8.23
2019-05-20T20:20:00.892Z,7.15
2019-05-20T20:24:04.901Z,8.35
2019-05-20T20:28:08.388Z,8.28
2019-05-20T20:32:12.784Z,12.25
2019-05-20T20:36:16.287Z,9.80
2019-05-20T20:40:19.726Z,7.78
2019-05-20T20:44:23.175Z,7.33
2019-05-20T20:48:26.891Z,11.22
2019-05-20T20:52:32.464Z,9.15
2019-05-20T20:56:35.982Z,8.25
2019-05-20T21:00:39.420Z,11.90
2019-05-20T21:04:42.871Z,10.95
2019-05-20T21:08:47.019Z,12.68
2019-05-20T21:12:50.456Z,13.65
2019-05-20T21:16:55.723Z,13.58
2019-05-20T21:41:13.079Z,14.65
2019-05-20T21:49:55.483Z,13.80
2019-05-20T21:53:59.034Z,12.30
2019-05-20T21:58:03.684Z,13.45
2019-05-20T22:02:07.560Z,13.85
2019-05-20T22:06:11.129Z,13.75
2019-05-20T22:10:14.822Z,15.00
2019-05-20T22:14:18.414Z,16.97
2019-05-20T22:18:21.832Z,14.73
2019-05-20T22:22:27.032Z,18.57
2019-05-20T22:26:30.845Z,14.73
2019-05-20T22:30:34.315Z,16.42
2019-05-20T22:34:38.301Z,17.15
2019-05-20T22:38:42.989Z,18.87
2019-05-20T22:42:46.410Z,16.30
2019-05-20T22:46:50.271Z,16.20
2019-05-20T22:50:54.028Z,15.50
2019-05-20T22:54:57.551Z,19.17
2019-05-20T22:59:01.132Z,17.12
2019-05-20T23:03:04.580Z,17.32
2019-05-20T23:07:08.154Z,17.12
2019-05-20T23:11:12.486Z,19.27
2019-05-20T23:15:16.109Z,19.80
2019-05-20T23:19:19.550Z,20.35
2019-05-20T23:23:23.063Z,16.93
2019-05-20T23:27:27.491Z,20.08
2019-05-20T23:31:31.296Z,19.50
2019-05-20T23:35:36.422Z,15.18
2019-05-20T23:39:39.875Z,14.25
2019-05-20T23:43:43.395Z,20.35
2019-05-20T23:47:46.830Z,18.73
2019-05-20T23:51:50.283Z,14.38
2019-05-20T23:55:53.914Z,14.73
2019-05-20T23:59:57.375Z,19.65
